Tropical Cyclones
[Index]
Main Index Home Page Stock Weather Photos Extreme Storms Discussion Storm News and Storm Chasing Reports Tropical Cyclones / Hurricanes / Typhoons Weather Data and Links Wild Fires / Bushfires Weather Observation Techniques Weather Picture Catalogue Tornado Pictures and Reports Stock Video Footage and DVDs for sale
Season 1992-1993 Tropical Cyclone MICK Track Map
Season 1992-1993 Summaries: [BoM-AU] [JTWC-AU] [JTWC-SIO] [JTWC-SPAC] [JTWC-SH]
<<- Previous TC | JTWC 1992-1993 Season | Next TC ->>

click for intensity scale information  Lat/long Grid: Show Hide

 Date Labels: Show Hide

Joint Typhoon Warning Centre Cyclone Data

Name: MICK

03 Feb 1993 00:00 UTC to 09 Feb 1993 12:00 UTC

    date/time    lat    long     hPa   cat  kts
1993-02-03 00   13.8   169.2W                 25          
1993-02-03 06   13.9   169.7W                 20          
1993-02-03 12   14.1   170.2W                 20          
1993-02-03 18   14.3   170.6W                 25          
1993-02-04 00   14.5   170.9W                 25          
1993-02-04 06   14.7   171.3W                 25          
1993-02-04 12   15.0   171.7W                 25          
1993-02-04 18   15.3   172.1W                 25          
1993-02-05 00   15.7   172.4W                 25          
1993-02-05 06   16.1   172.5W                 25          
1993-02-05 12   16.6   172.6W                 30          
1993-02-05 18   17.1   172.6W                 30          
1993-02-06 00   17.8   173.0W                 30          
1993-02-06 06   18.3   173.7W                 35          
1993-02-06 12   18.5   174.6W                 35          
1993-02-06 18   18.7   175.5W                 35          
1993-02-07 00   18.9   176.4W           1     40          
1993-02-07 06   19.2   177.2W           1     45          
1993-02-07 12   19.7   177.9W           1     45          
1993-02-07 18   20.5   178.5W           1     45          
1993-02-08 00   21.4   179.0W           1     45          
1993-02-08 06   22.3   179.6W           1     45          
1993-02-08 12   23.2   179.9            1     40          
1993-02-08 18   24.0   179.4            1     40          
1993-02-09 00   24.7   179.0            1     40          
1993-02-09 06   25.4   178.6                  35          
1993-02-09 12   26.2   178.3                  35          
Winds are 1-min average.

Tropical cyclone tracks developed by Michael Bath using data from the Joint Typhoon Warning Centre Best Tracks and Google Maps.


[Australian Severe Weather index] [Copyright Notice] [Email Contacts] [Search This Site] [Privacy Policy]
Document: tropical_cyclone_mick.htm Updated: 18 September 2016